Time,TemperatureF,DewpointF,PressureIn,WindDirection,WindDirectionDegrees,WindSpeedMPH,WindSpeedGustMPH,Humidity,HourlyPrecipIn,Conditions,Clouds,dailyrainin,SoftwareType,DateUTC
2013-05-10 09:22:00,59.0,53.8,29.97,NE,51,1.0,1.0,83,0.00,,,0.00,Wunderground v.1.15,2013-05-10 13:22:00,
2013-05-10 09:28:00,59.8,55.0,29.97,NE,51,2.0,4.0,84,0.00,,,0.00,Wunderground v.1.15,2013-05-10 13:28:00,
2013-05-10 09:34:00,60.7,56.8,29.97,SSE,160,2.0,4.0,87,0.00,,,0.00,Wunderground v.1.15,2013-05-10 13:34:00,
2013-05-10 09:40:00,61.8,57.9,29.96,SSE,159,2.0,2.0,87,0.00,,,0.00,Wunderground v.1.15,2013-05-10 13:40:00,
2013-05-10 09:46:00,62.7,57.8,29.97,SE,146,2.0,2.0,84,0.00,,,0.00,Wunderground v.1.15,2013-05-10 13:46:00,
2013-05-10 09:52:00,63.2,58.6,29.97,ENE,65,1.0,1.0,85,0.00,,,0.00,Wunderground v.1.15,2013-05-10 13:52:00,
2013-05-10 09:58:00,63.6,58.3,29.97,SE,127,1.0,4.0,83,0.00,,,0.00,Wunderground v.1.15,2013-05-10 13:58:00,
2013-05-10 10:04:00,63.8,58.9,29.97,SSE,161,2.0,4.0,84,0.00,,,0.00,Wunderground v.1.15,2013-05-10 14:04:00,
2013-05-10 10:10:00,64.3,58.3,29.96,SSE,159,3.0,4.0,81,0.00,,,0.00,Wunderground v.1.15,2013-05-10 14:10:00,
2013-05-10 10:16:00,64.3,59.0,29.96,SSE,159,1.0,4.0,83,0.00,,,0.00,Wunderground v.1.15,2013-05-10 14:16:00,
2013-05-10 10:22:00,64.7,58.7,29.96,SE,144,1.0,1.0,81,0.00,,,0.00,Wunderground v.1.15,2013-05-10 14:22:00,
2013-05-10 10:28:00,64.9,58.6,29.96,SSE,148,1.0,2.0,80,0.00,,,0.00,Wunderground v.1.15,2013-05-10 14:28:00,
2013-05-10 10:34:00,64.9,58.6,29.96,SSE,150,1.0,2.0,80,0.00,,,0.00,Wunderground v.1.15,2013-05-10 14:34:00,
2013-05-10 10:40:00,65.3,59.0,29.96,ESE,109,1.0,1.0,80,0.00,,,0.00,Wunderground v.1.15,2013-05-10 14:40:00,
2013-05-10 10:46:00,65.9,59.9,29.96,ENE,72,1.0,4.0,81,0.00,,,0.00,Wunderground v.1.15,2013-05-10 14:46:00,
2013-05-10 10:52:00,66.3,59.6,29.95,NE,53,2.0,3.0,79,0.00,,,0.00,Wunderground v.1.15,2013-05-10 14:52:00,
2013-05-10 10:58:00,67.1,60.0,29.95,NE,44,3.0,4.0,78,0.00,,,0.00,Wunderground v.1.15,2013-05-10 14:58:00,
2013-05-10 11:04:00,67.6,60.5,29.95,SE,141,2.0,5.0,78,0.00,,,0.00,Wunderground v.1.15,2013-05-10 15:04:00,
2013-05-10 11:10:00,67.3,59.1,29.95,SE,136,1.0,1.0,75,0.00,,,0.00,Wunderground v.1.15,2013-05-10 15:10:00,
2013-05-10 11:16:00,67.0,59.5,29.95,WSW,250,1.0,2.0,77,0.00,,,0.00,Wunderground v.1.15,2013-05-10 15:16:00,
2013-05-10 11:22:00,67.4,60.7,29.95,WSW,251,1.0,1.0,79,0.00,,,0.00,Wunderground v.1.15,2013-05-10 15:22:00,
2013-05-10 11:28:00,67.5,59.7,29.95,WSW,252,0.0,1.0,76,0.00,,,0.00,Wunderground v.1.15,2013-05-10 15:28:00,
2013-05-10 11:34:00,67.3,59.8,29.95,WSW,258,0.0,0.0,77,0.00,,,0.00,Wunderground v.1.15,2013-05-10 15:34:00,
2013-05-10 11:40:00,67.7,60.6,29.95,WSW,258,0.0,0.0,78,0.00,,,0.00,Wunderground v.1.15,2013-05-10 15:40:00,
2013-05-10 11:46:00,67.7,59.9,29.95,West,266,0.0,0.0,76,0.00,,,0.00,Wunderground v.1.15,2013-05-10 15:46:00,
2013-05-10 11:52:00,68.4,61.3,29.95,NE,40,1.0,1.0,78,0.00,,,0.00,Wunderground v.1.15,2013-05-10 15:52:00,
2013-05-10 11:58:00,68.7,61.6,29.94,South,186,1.0,5.0,78,0.00,,,0.00,Wunderground v.1.15,2013-05-10 15:58:00,
2013-05-10 12:04:00,68.6,61.8,29.94,NE,51,2.0,3.0,79,0.00,,,0.00,Wunderground v.1.15,2013-05-10 16:04:00,
2013-05-10 12:10:00,69.0,60.7,29.94,SSE,161,1.0,1.0,75,0.00,,,0.00,Wunderground v.1.15,2013-05-10 16:10:00,
2013-05-10 12:16:00,68.8,60.2,29.94,SSE,161,1.0,1.0,74,0.00,,,0.00,Wunderground v.1.15,2013-05-10 16:16:00,
2013-05-10 12:22:00,69.0,60.7,29.94,SSE,158,0.0,0.0,75,0.00,,,0.00,Wunderground v.1.15,2013-05-10 16:22:00,
2013-05-10 12:28:00,69.3,61.0,29.93,SSE,153,0.0,0.0,75,0.00,,,0.00,Wunderground v.1.15,2013-05-10 16:28:00,
2013-05-10 12:34:00,69.8,61.1,29.93,SSE,147,0.0,1.0,74,0.00,,,0.00,Wunderground v.1.15,2013-05-10 16:34:00,
2013-05-10 12:40:00,70.1,60.7,29.92,East,91,1.0,1.0,72,0.00,,,0.00,Wunderground v.1.15,2013-05-10 16:40:00,
2013-05-10 12:46:00,69.9,60.8,29.92,SSE,164,1.0,2.0,73,0.00,,,0.00,Wunderground v.1.15,2013-05-10 16:46:00,
2013-05-10 12:52:00,70.3,60.8,29.92,SE,132,1.0,1.0,72,0.00,,,0.00,Wunderground v.1.15,2013-05-10 16:52:00,
2013-05-10 12:58:00,70.3,59.6,29.92,SE,145,0.0,2.0,69,0.00,,,0.00,Wunderground v.1.15,2013-05-10 16:58:00,
2013-05-10 13:04:00,70.3,60.4,29.92,SSE,161,1.0,3.0,71,0.00,,,0.00,Wunderground v.1.15,2013-05-10 17:04:00,
2013-05-10 13:10:00,71.0,61.1,29.91,SE,130,1.0,1.0,71,0.00,,,0.00,Wunderground v.1.15,2013-05-10 17:10:00,
2013-05-10 13:16:00,71.8,60.2,29.92,SE,136,1.0,1.0,67,0.00,,,0.00,Wunderground v.1.15,2013-05-10 17:16:00,
2013-05-10 13:22:00,72.1,59.2,29.91,South,182,1.0,5.0,64,0.00,,,0.00,Wunderground v.1.15,2013-05-10 17:22:00,
2013-05-10 13:28:00,72.2,59.3,29.91,SSW,194,1.0,5.0,64,0.00,,,0.00,Wunderground v.1.15,2013-05-10 17:28:00,
2013-05-10 13:34:00,72.8,59.0,29.90,SSW,194,2.0,3.0,62,0.00,,,0.00,Wunderground v.1.15,2013-05-10 17:34:00,
2013-05-10 13:40:00,73.2,58.9,29.90,SE,126,2.0,5.0,61,0.00,,,0.00,Wunderground v.1.15,2013-05-10 17:40:00,
2013-05-10 13:46:00,73.6,61.1,29.90,SE,125,2.0,5.0,65,0.00,,,0.00,Wunderground v.1.15,2013-05-10 17:46:00,
2013-05-10 13:52:00,74.4,59.6,29.90,South,188,3.0,6.0,60,0.00,,,0.00,Wunderground v.1.15,2013-05-10 17:52:00,
2013-05-10 13:58:00,74.2,58.5,29.89,SSE,156,4.0,8.0,58,0.00,,,0.00,Wunderground v.1.15,2013-05-10 17:58:00,
2013-05-10 14:04:00,74.2,58.9,29.90,South,171,4.0,4.0,59,0.00,,,0.00,Wunderground v.1.15,2013-05-10 18:04:00,
2013-05-10 14:10:00,73.5,57.8,29.89,South,169,4.0,4.0,58,0.00,,,0.00,Wunderground v.1.15,2013-05-10 18:10:00,
2013-05-10 14:16:00,73.3,58.1,29.90,SSE,154,3.0,5.0,59,0.00,,,0.00,Wunderground v.1.15,2013-05-10 18:16:00,
2013-05-10 14:22:00,73.0,57.3,29.90,SSW,192,3.0,5.0,58,0.00,,,0.00,Wunderground v.1.15,2013-05-10 18:22:00,
2013-05-10 14:28:00,72.6,57.4,29.90,South,178,3.0,5.0,59,0.00,,,0.00,Wunderground v.1.15,2013-05-10 18:28:00,
2013-05-10 14:34:00,72.6,56.5,29.90,SW,217,2.0,4.0,57,0.00,,,0.00,Wunderground v.1.15,2013-05-10 18:34:00,
2013-05-10 14:40:00,72.5,58.3,29.89,SW,214,1.0,1.0,61,0.00,,,0.00,Wunderground v.1.15,2013-05-10 18:40:00,
2013-05-10 14:46:00,72.5,57.4,29.90,SSW,206,1.0,1.0,59,0.00,,,0.00,Wunderground v.1.15,2013-05-10 18:46:00,
2013-05-10 14:52:00,72.5,58.7,29.89,SSW,204,1.0,4.0,62,0.00,,,0.00,Wunderground v.1.15,2013-05-10 18:52:00,
2013-05-10 14:58:00,72.3,58.1,29.89,SSW,197,2.0,4.0,61,0.00,,,0.00,Wunderground v.1.15,2013-05-10 18:58:00,
2013-05-10 15:04:00,72.0,59.2,29.89,South,188,3.0,4.0,64,0.00,,,0.00,Wunderground v.1.15,2013-05-10 19:04:00,
2013-05-10 15:10:00,71.8,57.6,29.89,South,188,3.0,3.0,61,0.00,,,0.00,Wunderground v.1.15,2013-05-10 19:10:00,
2013-05-10 15:16:00,71.7,58.4,29.89,South,187,3.0,3.0,63,0.00,,,0.00,Wunderground v.1.15,2013-05-10 19:16:00,
2013-05-10 15:22:00,71.4,59.0,29.88,South,186,1.0,3.0,65,0.00,,,0.00,Wunderground v.1.15,2013-05-10 19:22:00,
2013-05-10 15:28:00,71.0,58.6,29.88,South,182,3.0,4.0,65,0.00,,,0.00,Wunderground v.1.15,2013-05-10 19:28:00,
2013-05-10 15:34:00,70.5,59.4,29.88,South,182,3.0,3.0,68,0.00,,,0.00,Wunderground v.1.15,2013-05-10 19:34:00,
2013-05-10 15:40:00,70.3,59.6,29.88,South,182,1.0,1.0,69,0.00,,,0.00,Wunderground v.1.15,2013-05-10 19:40:00,
2013-05-10 15:46:00,70.2,59.1,29.87,South,182,0.0,2.0,68,0.00,,,0.00,Wunderground v.1.15,2013-05-10 19:46:00,
2013-05-10 15:52:00,70.2,59.6,29.87,South,182,1.0,3.0,69,0.00,,,0.00,Wunderground v.1.15,2013-05-10 19:52:00,
2013-05-10 15:58:00,70.2,59.1,29.87,South,182,1.0,3.0,68,0.00,,,0.00,Wunderground v.1.15,2013-05-10 19:58:00,
2013-05-10 16:04:00,70.3,59.6,29.87,South,182,0.0,1.0,69,0.00,,,0.00,Wunderground v.1.15,2013-05-10 20:04:00,
2013-05-10 16:10:00,70.3,59.2,29.86,South,177,1.0,4.0,68,0.00,,,0.00,Wunderground v.1.15,2013-05-10 20:10:00,
2013-05-10 16:16:00,70.4,57.2,29.86,South,188,4.0,12.0,63,0.00,,,0.00,Wunderground v.1.15,2013-05-10 20:16:00,
2013-05-10 16:22:00,70.9,56.3,29.86,South,184,7.0,9.0,60,0.00,,,0.00,Wunderground v.1.15,2013-05-10 20:22:00,
2013-05-10 16:28:00,71.1,55.6,29.86,SSW,200,5.0,9.0,58,0.00,,,0.00,Wunderground v.1.15,2013-05-10 20:28:00,
2013-05-10 16:34:00,71.4,57.2,29.85,SSW,196,3.0,4.0,61,0.00,,,0.00,Wunderground v.1.15,2013-05-10 20:34:00,
2013-05-10 16:40:00,71.5,57.8,29.85,SSW,196,1.0,1.0,62,0.00,,,0.00,Wunderground v.1.15,2013-05-10 20:40:00,
2013-05-10 16:46:00,72.2,57.5,29.85,South,174,1.0,4.0,60,0.00,,,0.00,Wunderground v.1.15,2013-05-10 20:46:00,
2013-05-10 16:52:00,72.6,57.9,29.85,South,186,3.0,3.0,60,0.00,,,0.00,Wunderground v.1.15,2013-05-10 20:52:00,
2013-05-10 16:58:00,72.4,57.3,29.85,South,188,2.0,3.0,59,0.00,,,0.00,Wunderground v.1.15,2013-05-10 20:58:00,
2013-05-10 17:04:00,72.0,57.4,29.84,South,182,3.0,6.0,60,0.00,,,0.00,Wunderground v.1.15,2013-05-10 21:04:00,
2013-05-10 17:10:00,71.8,58.1,29.84,South,183,4.0,4.0,62,0.00,,,0.00,Wunderground v.1.15,2013-05-10 21:10:00,
2013-05-10 17:16:00,72.0,58.3,29.84,South,180,5.0,15.0,62,0.00,,,0.00,Wunderground v.1.15,2013-05-10 21:16:00,
2013-05-10 17:22:00,72.4,56.3,29.84,South,189,6.0,15.0,57,0.00,,,0.00,Wunderground v.1.15,2013-05-10 21:22:00,
2013-05-10 17:28:00,72.2,55.1,29.83,South,179,7.0,15.0,55,0.00,,,0.00,Wunderground v.1.15,2013-05-10 21:28:00,
2013-05-10 17:34:00,72.1,55.0,29.83,South,173,6.0,11.0,55,0.00,,,0.00,Wunderground v.1.15,2013-05-10 21:34:00,
2013-05-10 17:40:00,71.8,55.7,29.83,South,179,6.0,6.0,57,0.00,,,0.00,Wunderground v.1.15,2013-05-10 21:40:00,
2013-05-10 17:46:00,71.7,56.1,29.83,South,191,4.0,10.0,58,0.00,,,0.00,Wunderground v.1.15,2013-05-10 21:46:00,
2013-05-10 17:52:00,71.6,55.6,29.83,South,179,5.0,5.0,57,0.00,,,0.00,Wunderground v.1.15,2013-05-10 21:52:00,
2013-05-10 17:58:00,71.7,56.1,29.82,South,172,5.0,5.0,58,0.00,,,0.00,Wunderground v.1.15,2013-05-10 21:58:00,
2013-05-10 18:00:00,71.6,56.5,29.82,South,186,5.0,7.0,59,0.00,,,0.00,Wunderground v.1.15,2013-05-10 22:00:00,
2013-05-10 18:02:00,71.5,56.4,29.83,South,179,5.0,10.0,59,0.00,,,0.00,Wunderground v.1.15,2013-05-10 22:02:00,
2013-05-10 18:06:00,71.4,56.8,29.82,South,171,5.0,10.0,60,0.00,,,0.00,Wunderground v.1.15,2013-05-10 22:06:00,
2013-05-10 18:12:00,71.1,56.5,29.81,SSW,202,5.0,10.0,60,0.00,,,0.00,Wunderground v.1.15,2013-05-10 22:12:00,
2013-05-10 18:16:00,70.8,56.2,29.81,SSW,193,6.0,10.0,60,0.00,,,0.00,Wunderground v.1.15,2013-05-10 22:16:00,
2013-05-10 18:22:00,70.7,56.1,29.81,SSW,194,7.0,11.0,60,0.00,,,0.00,Wunderground v.1.15,2013-05-10 22:22:00,
2013-05-10 18:28:00,70.8,56.2,29.81,SE,134,7.0,11.0,60,0.00,,,0.00,Wunderground v.1.15,2013-05-10 22:28:00,
2013-05-10 18:34:00,70.8,56.7,29.81,South,188,6.0,9.0,61,0.00,,,0.00,Wunderground v.1.15,2013-05-10 22:34:00,
2013-05-10 18:40:00,70.7,57.0,29.81,SSW,192,3.0,3.0,62,0.00,,,0.00,Wunderground v.1.15,2013-05-10 22:40:00,
2013-05-10 18:46:00,70.4,57.2,29.81,SSE,166,4.0,8.0,63,0.00,,,0.00,Wunderground v.1.15,2013-05-10 22:46:00,
2013-05-10 18:52:00,70.3,56.2,29.81,South,184,5.0,6.0,61,0.00,,,0.00,Wunderground v.1.15,2013-05-10 22:52:00,
2013-05-10 18:58:00,70.1,56.5,29.80,SSW,207,6.0,10.0,62,0.00,,,0.00,Wunderground v.1.15,2013-05-10 22:58:00,
2013-05-10 19:04:00,70.0,56.4,29.81,SSW,194,6.0,9.0,62,0.00,,,0.00,Wunderground v.1.15,2013-05-10 23:04:00,
2013-05-10 19:10:00,69.7,57.0,29.81,SSE,167,5.0,5.0,64,0.00,,,0.00,Wunderground v.1.15,2013-05-10 23:10:00,
2013-05-10 19:16:00,69.4,56.7,29.81,SSE,163,3.0,5.0,64,0.00,,,0.00,Wunderground v.1.15,2013-05-10 23:16:00,
2013-05-10 19:22:00,69.2,56.1,29.81,ESE,123,2.0,3.0,63,0.00,,,0.00,Wunderground v.1.15,2013-05-10 23:22:00,
2013-05-10 19:28:00,69.0,56.7,29.81,SSE,161,2.0,3.0,65,0.00,,,0.00,Wunderground v.1.15,2013-05-10 23:28:00,
2013-05-10 19:34:00,68.8,57.0,29.81,ESE,117,1.0,2.0,66,0.00,,,0.00,Wunderground v.1.15,2013-05-10 23:34:00,
2013-05-10 19:40:00,68.7,56.0,29.81,SW,235,3.0,5.0,64,0.00,,,0.00,Wunderground v.1.15,2013-05-10 23:40:00,
2013-05-10 19:46:00,68.7,56.9,29.80,SSE,168,5.0,7.0,66,0.00,,,0.00,Wunderground v.1.15,2013-05-10 23:46:00,
2013-05-10 19:52:00,68.5,57.1,29.80,SSW,192,7.0,11.0,67,0.00,,,0.00,Wunderground v.1.15,2013-05-10 23:52:00,
2013-05-10 19:58:00,67.9,56.9,29.80,SSE,167,6.0,11.0,68,0.00,,,0.00,Wunderground v.1.15,2013-05-10 23:58:00,
2013-05-10 20:04:00,67.7,57.2,29.80,South,176,5.0,10.0,69,0.00,,,0.00,Wunderground v.1.15,2013-05-11 00:04:00,
2013-05-10 20:10:00,67.9,56.5,29.80,South,182,6.0,10.0,67,0.00,,,0.00,Wunderground v.1.15,2013-05-11 00:10:00,
2013-05-10 20:16:00,68.1,57.1,29.80,SSE,167,6.0,10.0,68,0.00,,,0.00,Wunderground v.1.15,2013-05-11 00:16:00,
2013-05-10 20:22:00,68.1,56.7,29.80,SSE,153,5.0,6.0,67,0.00,,,0.00,Wunderground v.1.15,2013-05-11 00:22:00,
2013-05-10 20:28:00,68.0,56.6,29.80,SSW,208,4.0,6.0,67,0.00,,,0.00,Wunderground v.1.15,2013-05-11 00:28:00,
2013-05-10 20:34:00,68.0,56.6,29.80,South,185,4.0,11.0,67,0.00,,,0.00,Wunderground v.1.15,2013-05-11 00:34:00,
2013-05-10 20:40:00,68.2,56.4,29.80,South,185,5.0,5.0,66,0.00,,,0.00,Wunderground v.1.15,2013-05-11 00:40:00,
2013-05-10 20:46:00,68.3,56.9,29.79,SSE,167,4.0,12.0,67,0.00,,,0.00,Wunderground v.1.15,2013-05-11 00:46:00,
2013-05-10 20:52:00,68.4,56.6,29.80,South,183,7.0,7.0,66,0.00,,,0.00,Wunderground v.1.15,2013-05-11 00:52:00,
2013-05-10 20:58:00,68.3,56.5,29.80,South,180,5.0,7.0,66,0.00,,,0.00,Wunderground v.1.15,2013-05-11 00:58:00,
2013-05-10 21:04:00,68.4,56.6,29.80,South,179,4.0,10.0,66,0.00,,,0.00,Wunderground v.1.15,2013-05-11 01:04:00,
2013-05-10 21:10:00,68.2,56.8,29.80,South,172,4.0,4.0,67,0.00,,,0.00,Wunderground v.1.15,2013-05-11 01:10:00,
2013-05-10 21:16:00,68.1,56.7,29.80,South,172,3.0,4.0,67,0.00,,,0.00,Wunderground v.1.15,2013-05-11 01:16:00,
2013-05-10 21:22:00,68.0,57.0,29.80,SSE,161,3.0,5.0,68,0.00,,,0.00,Wunderground v.1.15,2013-05-11 01:22:00,
2013-05-10 21:28:00,67.9,56.9,29.80,South,169,3.0,5.0,68,0.00,,,0.00,Wunderground v.1.15,2013-05-11 01:28:00,
2013-05-10 21:34:00,67.9,56.9,29.80,SW,224,2.0,4.0,68,0.00,,,0.00,Wunderground v.1.15,2013-05-11 01:34:00,
2013-05-10 21:40:00,67.8,57.3,29.80,SSW,213,2.0,2.0,69,0.00,,,0.00,Wunderground v.1.15,2013-05-11 01:40:00,
2013-05-10 21:46:00,67.7,57.2,29.80,South,179,3.0,5.0,69,0.00,,,0.00,Wunderground v.1.15,2013-05-11 01:46:00,
2013-05-10 21:52:00,67.6,57.5,29.80,SSW,209,3.0,4.0,70,0.00,,,0.00,Wunderground v.1.15,2013-05-11 01:52:00,
2013-05-10 21:58:00,67.4,58.1,29.82,WNW,298,2.0,7.0,72,0.00,,,0.00,Wunderground v.1.15,2013-05-11 01:58:00,
2013-05-10 22:04:00,66.4,58.2,29.82,West,259,5.0,10.0,75,0.33,,,0.02,Wunderground v.1.15,2013-05-11 02:04:00,
2013-05-10 22:10:00,65.0,58.3,29.83,WNW,286,5.0,5.0,79,0.09,,,0.03,Wunderground v.1.15,2013-05-11 02:10:00,
2013-05-10 22:16:00,63.8,58.5,29.82,NW,316,2.0,5.0,83,0.14,,,0.04,Wunderground v.1.15,2013-05-11 02:16:00,
2013-05-10 22:22:00,62.9,58.3,29.81,NNW,331,2.0,3.0,85,0.28,,,0.07,Wunderground v.1.15,2013-05-11 02:22:00,
2013-05-10 22:28:00,62.2,58.0,29.83,NW,309,2.0,4.0,86,0.63,,,0.10,Wunderground v.1.15,2013-05-11 02:28:00,
2013-05-10 22:34:00,61.8,57.9,29.83,WNW,302,2.0,2.0,87,0.33,,,0.13,Wunderground v.1.15,2013-05-11 02:34:00,
2013-05-10 22:40:00,61.4,57.5,29.83,WNW,302,0.0,0.0,87,0.10,,,0.14,Wunderground v.1.15,2013-05-11 02:40:00,
2013-05-10 22:46:00,61.3,57.1,29.83,WNW,302,0.0,1.0,86,0.15,,,0.16,Wunderground v.1.15,2013-05-11 02:46:00,
2013-05-10 22:52:00,61.0,56.8,29.82,WNW,302,0.0,0.0,86,0.09,,,0.16,Wunderground v.1.15,2013-05-11 02:52:00,
2013-05-10 22:58:00,60.8,56.6,29.82,WNW,302,0.0,0.0,86,0.05,,,0.16,Wunderground v.1.15,2013-05-11 02:58:00,
2013-05-10 23:04:00,60.7,56.2,29.82,WNW,302,0.0,0.0,85,0.00,,,0.16,Wunderground v.1.15,2013-05-11 03:04:00,
2013-05-10 23:10:00,60.6,56.1,29.82,WNW,302,0.0,0.0,85,0.00,,,0.16,Wunderground v.1.15,2013-05-11 03:10:00,
2013-05-10 23:16:00,60.5,56.0,29.81,WNW,302,0.0,0.0,85,0.00,,,0.17,Wunderground v.1.15,2013-05-11 03:16:00,
2013-05-10 23:22:00,60.4,55.5,29.81,WNW,302,0.0,0.0,84,0.08,,,0.18,Wunderground v.1.15,2013-05-11 03:22:00,
2013-05-10 23:28:00,60.3,55.4,29.80,WNW,302,0.0,0.0,84,0.07,,,0.18,Wunderground v.1.15,2013-05-11 03:28:00,
2013-05-10 23:34:00,60.2,55.0,29.79,WNW,301,0.0,3.0,83,0.06,,,0.19,Wunderground v.1.15,2013-05-11 03:34:00,
2013-05-10 23:40:00,60.2,55.0,29.79,SSE,152,1.0,2.0,83,0.08,,,0.20,Wunderground v.1.15,2013-05-11 03:40:00,
2013-05-10 23:46:00,60.2,55.0,29.79,SSE,164,1.0,2.0,83,0.10,,,0.21,Wunderground v.1.15,2013-05-11 03:46:00,
2013-05-10 23:52:00,60.1,54.6,29.78,ESE,116,1.0,2.0,82,0.07,,,0.21,Wunderground v.1.15,2013-05-11 03:52:00,
2013-05-10 23:58:00,60.2,54.7,29.79,SE,138,2.0,3.0,82,0.05,,,0.22,Wunderground v.1.15,2013-05-11 03:58:00,